createdAt,value
2023-05-25T00:04:17.935Z,11.62
2023-05-25T00:09:24.174Z,11.56
2023-05-25T00:14:31.453Z,11.50
2023-05-25T00:19:37.591Z,11.44
2023-05-25T00:24:42.074Z,11.39
2023-05-25T00:29:51.354Z,11.34
2023-05-25T00:34:59.805Z,11.28
2023-05-25T00:40:07.448Z,11.21
2023-05-25T00:45:14.605Z,11.15
2023-05-25T00:50:24.512Z,11.10
2023-05-25T00:55:32.346Z,11.03
2023-05-25T01:00:40.367Z,10.98
2023-05-25T01:05:50.956Z,10.93
2023-05-25T01:11:01.170Z,10.87
2023-05-25T01:16:07.062Z,10.86
2023-05-25T01:21:20.552Z,10.81
2023-05-25T01:26:29.921Z,10.76
2023-05-25T01:31:38.837Z,10.71
2023-05-25T01:36:45.639Z,10.71
2023-05-25T01:42:07.632Z,10.68
2023-05-25T01:47:24.968Z,10.64
2023-05-25T01:52:43.474Z,10.61
2023-05-25T01:57:53.016Z,10.58
2023-05-25T02:02:59.090Z,10.54
2023-05-25T02:08:07.725Z,10.49
2023-05-25T02:13:12.776Z,10.44
2023-05-25T02:18:18.051Z,10.39
2023-05-25T02:23:30.051Z,10.37
2023-05-25T02:28:36.280Z,10.33
2023-05-25T02:33:43.698Z,10.30
2023-05-25T02:38:52.632Z,10.29
2023-05-25T02:43:57.330Z,10.25
2023-05-25T02:49:05.092Z,10.21
2023-05-25T02:54:15.799Z,10.16
2023-05-25T02:59:22.828Z,10.15
2023-05-25T03:04:36.264Z,10.12
2023-05-25T03:09:45.797Z,10.12
2023-05-25T03:14:51.284Z,10.11
2023-05-25T03:20:00.982Z,10.09
2023-05-25T03:25:09.751Z,10.08
2023-05-25T03:30:16.220Z,10.08
2023-05-25T03:35:21.118Z,10.08
2023-05-25T03:40:26.730Z,10.11
2023-05-25T03:45:31.694Z,10.16
2023-05-25T03:50:43.038Z,10.22
2023-05-25T03:55:52.582Z,10.28
2023-05-25T04:00:59.307Z,10.35
2023-05-25T04:06:04.773Z,10.41
2023-05-25T04:11:10.486Z,10.50
2023-05-25T04:16:16.911Z,10.61
2023-05-25T04:21:27.104Z,10.73
2023-05-25T04:26:33.894Z,10.86
2023-05-25T04:31:49.607Z,11.06
2023-05-25T04:37:00.612Z,11.26
2023-05-25T04:47:37.732Z,11.54
2023-05-25T04:52:41.185Z,13.02
2023-05-25T04:57:44.280Z,14.98
2023-05-25T05:02:49.127Z,16.48
2023-05-25T05:07:54.030Z,18.08
2023-05-25T05:12:57.354Z,19.62
2023-05-25T05:18:02.250Z,20.90
2023-05-25T05:23:05.917Z,21.84
2023-05-25T05:28:09.370Z,23.09
2023-05-25T05:33:16.402Z,24.12
2023-05-25T05:38:20.312Z,23.12
2023-05-25T05:43:23.619Z,22.30
2023-05-25T05:48:28.202Z,22.37
2023-05-25T05:53:32.472Z,22.30
2023-05-25T05:58:35.736Z,22.37
2023-05-25T06:03:40.450Z,22.55
2023-05-25T06:08:44.402Z,23.11
2023-05-25T06:13:47.641Z,23.63
2023-05-25T06:18:52.266Z,25.45
2023-05-25T06:23:57.787Z,26.94
2023-05-25T06:29:05.017Z,28.49
2023-05-25T06:34:09.741Z,28.15
2023-05-25T06:39:13.032Z,28.85
2023-05-25T06:44:16.495Z,27.74
2023-05-25T06:49:22.521Z,27.13
2023-05-25T06:54:25.852Z,26.96
2023-05-25T06:59:29.355Z,26.33
2023-05-25T07:04:34.774Z,25.90
2023-05-25T07:09:38.214Z,25.41
2023-05-25T07:14:48.599Z,26.58
2023-05-25T07:19:53.449Z,25.28
2023-05-25T07:24:59.804Z,26.23
2023-05-25T07:30:03.186Z,25.05
2023-05-25T07:35:09.532Z,24.37
2023-05-25T07:40:13.762Z,24.18
2023-05-25T07:45:17.290Z,24.43
2023-05-25T07:50:26.261Z,24.19
2023-05-25T07:55:29.632Z,24.07
2023-05-25T08:00:35.573Z,23.51
2023-05-25T08:05:40.614Z,22.97
2023-05-25T08:10:43.848Z,22.30
2023-05-25T08:15:47.290Z,22.16
2023-05-25T08:20:52.347Z,22.50
2023-05-25T08:25:55.786Z,22.29
2023-05-25T08:30:59.596Z,22.03
2023-05-25T08:36:04.720Z,21.84
2023-05-25T08:41:09.112Z,21.88
2023-05-25T08:46:12.877Z,21.79
2023-05-25T08:51:18.984Z,21.78
2023-05-25T08:56:24.804Z,21.99
2023-05-25T09:01:33.765Z,21.86
2023-05-25T09:06:38.812Z,21.61
2023-05-25T09:11:45.760Z,21.54
2023-05-25T09:16:49.230Z,21.58
2023-05-25T09:22:03.243Z,21.36
2023-05-25T09:27:23.656Z,21.50
2023-05-25T09:32:27.561Z,21.50
2023-05-25T09:37:32.500Z,21.17
2023-05-25T09:42:36.160Z,20.86
2023-05-25T09:47:41.325Z,20.89
2023-05-25T09:52:46.804Z,20.92
2023-05-25T09:57:54.903Z,20.90
2023-05-25T10:02:58.688Z,20.85
2023-05-25T10:08:04.769Z,20.74
2023-05-25T10:13:10.224Z,20.80
2023-05-25T10:18:15.762Z,21.15
2023-05-25T10:23:22.377Z,21.36
2023-05-25T10:28:31.440Z,21.58
2023-05-25T10:33:34.986Z,21.68
2023-05-25T10:38:42.002Z,21.81
2023-05-25T10:43:45.304Z,21.88
2023-05-25T10:48:50.264Z,21.84
2023-05-25T10:54:02.518Z,21.93
2023-05-25T10:59:05.798Z,21.88
2023-05-25T11:04:18.611Z,21.72
2023-05-25T11:09:28.285Z,21.84
2023-05-25T11:14:32.740Z,22.05
2023-05-25T11:19:43.684Z,22.16
2023-05-25T11:24:48.801Z,22.11
2023-05-25T11:29:53.272Z,22.39
2023-05-25T11:34:58.606Z,22.32
2023-05-25T11:40:10.032Z,22.19
2023-05-25T11:45:15.729Z,22.26
2023-05-25T11:50:19.111Z,21.99
2023-05-25T11:55:23.880Z,22.10
2023-05-25T12:00:28.804Z,22.26
2023-05-25T12:05:39.280Z,22.47
2023-05-25T12:10:52.857Z,22.41
2023-05-25T12:15:57.763Z,22.36
2023-05-25T12:21:05.248Z,22.54
2023-05-25T12:26:13.375Z,22.55
2023-05-25T12:31:24.343Z,22.29
2023-05-25T12:36:38.630Z,22.25
2023-05-25T12:42:02.165Z,22.42
2023-05-25T12:47:12.987Z,22.37
2023-05-25T12:52:34.652Z,22.10
2023-05-25T12:57:39.753Z,21.81
2023-05-25T13:02:47.787Z,21.83
2023-05-25T13:07:53.158Z,21.79
2023-05-25T13:12:58.710Z,21.63
2023-05-25T13:18:02.108Z,21.45
2023-05-25T13:23:06.036Z,21.55
2023-05-25T13:28:10.719Z,21.63
2023-05-25T13:33:14.176Z,21.56
2023-05-25T13:38:17.690Z,21.43
2023-05-25T13:43:22.365Z,21.46
2023-05-25T13:48:25.824Z,21.51
2023-05-25T13:53:29.604Z,21.50
2023-05-25T13:58:34.342Z,21.47
2023-05-25T14:03:39.047Z,21.48
2023-05-25T14:08:42.621Z,21.46
2023-05-25T14:13:47.166Z,21.39
2023-05-25T14:18:50.482Z,21.17
2023-05-25T14:23:53.884Z,21.19
2023-05-25T14:28:58.598Z,21.26
2023-05-25T14:34:02.450Z,21.25
2023-05-25T14:39:06.236Z,21.22
2023-05-25T14:44:11.482Z,21.17
2023-05-25T14:49:14.939Z,21.22
2023-05-25T14:54:18.093Z,21.23
2023-05-25T14:59:22.915Z,21.28
2023-05-25T15:04:32.909Z,21.32
2023-05-25T15:09:36.746Z,21.34
2023-05-25T15:14:42.435Z,21.46
2023-05-25T15:19:45.780Z,21.35
2023-05-25T15:24:49.028Z,21.25
2023-05-25T15:29:56.127Z,21.13
2023-05-25T15:34:59.478Z,21.02
2023-05-25T15:40:02.707Z,20.90
2023-05-25T15:45:08.590Z,20.83
2023-05-25T15:50:12.981Z,20.79
2023-05-25T15:55:16.258Z,20.67
2023-05-25T16:00:21.797Z,20.65
2023-05-25T16:05:25.381Z,20.62
2023-05-25T16:10:28.577Z,20.57
2023-05-25T16:15:33.144Z,20.55
2023-05-25T16:20:36.817Z,20.49
2023-05-25T16:25:40.024Z,20.44
2023-05-25T16:30:44.846Z,20.38
2023-05-25T16:35:49.590Z,20.35
2023-05-25T16:40:53.264Z,20.27
2023-05-25T16:45:59.257Z,20.19
2023-05-25T16:51:02.722Z,20.13
2023-05-25T16:56:10.974Z,20.11
2023-05-25T17:01:16.036Z,20.07
2023-05-25T17:06:19.445Z,20.00
2023-05-25T17:11:26.568Z,19.92
2023-05-25T17:16:32.723Z,19.85
2023-05-25T17:21:36.326Z,19.83
2023-05-25T17:26:42.037Z,19.73
2023-05-25T17:31:48.661Z,19.65
2023-05-25T17:36:52.558Z,19.54
2023-05-25T17:41:58.272Z,19.49
2023-05-25T17:47:09.153Z,19.41
2023-05-25T17:52:14.277Z,19.31
2023-05-25T17:57:17.815Z,19.25
2023-05-25T18:02:25.278Z,19.17
2023-05-25T18:07:28.766Z,19.10
2023-05-25T18:12:31.999Z,18.98
2023-05-25T18:17:36.692Z,18.93
2023-05-25T18:22:40.081Z,18.86
2023-05-25T18:27:43.311Z,18.75
2023-05-25T18:32:48.107Z,18.65
2023-05-25T18:37:51.895Z,18.56
2023-05-25T18:42:55.232Z,18.45
2023-05-25T18:48:07.528Z,18.35
2023-05-25T18:53:11.145Z,18.25
2023-05-25T18:58:14.298Z,18.13
2023-05-25T19:03:19.344Z,18.03
2023-05-25T19:08:22.789Z,17.92
2023-05-25T19:13:26.021Z,17.78
2023-05-25T19:18:30.743Z,17.67
2023-05-25T19:23:35.187Z,17.57
2023-05-25T19:28:38.646Z,17.46
2023-05-25T19:33:43.314Z,17.35
2023-05-25T19:38:46.625Z,17.23
2023-05-25T19:43:49.920Z,17.14
2023-05-25T19:48:54.596Z,17.04
2023-05-25T19:53:58.105Z,16.94
2023-05-25T19:59:01.306Z,16.84
2023-05-25T20:04:08.249Z,16.76
2023-05-25T20:09:12.752Z,16.67
2023-05-25T20:14:16.936Z,16.57
2023-05-25T20:19:23.485Z,16.48
2023-05-25T20:24:26.739Z,16.41
2023-05-25T20:29:30.079Z,16.31
2023-05-25T20:34:34.811Z,16.24
2023-05-25T20:39:38.202Z,16.14
2023-05-25T20:44:41.670Z,16.11
2023-05-25T20:49:46.278Z,16.04
2023-05-25T20:54:49.675Z,15.99
2023-05-25T20:59:54.352Z,15.89
2023-05-25T21:04:59.113Z,15.82
2023-05-25T21:10:03.151Z,15.76
2023-05-25T21:15:07.351Z,15.71
2023-05-25T21:20:12.849Z,15.63
2023-05-25T21:25:16.217Z,15.54
2023-05-25T21:30:20.935Z,15.47
2023-05-25T21:35:25.817Z,15.40
2023-05-25T21:40:29.182Z,15.34
2023-05-25T21:45:32.236Z,15.27
2023-05-25T21:50:37.065Z,15.22
2023-05-25T21:55:41.049Z,15.14
2023-05-25T22:00:44.435Z,15.07
2023-05-25T22:05:49.262Z,15.01
2023-05-25T22:10:52.516Z,14.96
2023-05-25T22:15:55.836Z,14.88
2023-05-25T22:21:00.616Z,14.84
2023-05-25T22:26:05.247Z,14.75
2023-05-25T22:31:08.775Z,14.69
2023-05-25T22:36:13.634Z,14.65
2023-05-25T22:41:17.006Z,14.58
2023-05-25T22:46:20.770Z,14.54
2023-05-25T22:51:25.513Z,14.49
2023-05-25T22:56:28.704Z,14.44
2023-05-25T23:01:32.338Z,14.39
2023-05-25T23:06:37.242Z,14.32
2023-05-25T23:11:40.711Z,14.27
2023-05-25T23:16:44.630Z,14.21
2023-05-25T23:21:49.534Z,14.15
2023-05-25T23:26:53.147Z,14.11
2023-05-25T23:31:56.516Z,14.06
2023-05-25T23:37:01.452Z,13.99
2023-05-25T23:42:04.963Z,13.94
2023-05-25T23:47:08.453Z,13.89
2023-05-25T23:52:13.063Z,13.83
2023-05-25T23:57:16.368Z,13.79
